sensor_id;sensor_type;location;lat;lon;timestamp;P1;P2;P0
54869;PMS5003;40756;-37.950;145.008;2022-09-30T00:01:51;1;1;
54869;PMS5003;40756;-37.950;145.008;2022-09-30T00:04:21;1;0;
54869;PMS5003;40756;-37.950;145.008;2022-09-30T00:06:52;1;1;
54869;PMS5003;40756;-37.950;145.008;2022-09-30T00:09:21;2;1;
54869;PMS5003;40756;-37.950;145.008;2022-09-30T00:11:51;0;0;
54869;PMS5003;40756;-37.950;145.008;2022-09-30T00:14:21;0;0;
54869;PMS5003;40756;-37.950;145.008;2022-09-30T00:16:51;1;1;
54869;PMS5003;40756;-37.950;145.008;2022-09-30T00:19:21;1;1;
54869;PMS5003;40756;-37.950;145.008;2022-09-30T00:21:50;0;0;
54869;PMS5003;40756;-37.950;145.008;2022-09-30T00:24:20;0;0;
54869;PMS5003;40756;-37.950;145.008;2022-09-30T00:26:49;1;1;
54869;PMS5003;40756;-37.950;145.008;2022-09-30T00:29:19;0;0;
54869;PMS5003;40756;-37.950;145.008;2022-09-30T00:31:48;0;0;
54869;PMS5003;40756;-37.950;145.008;2022-09-30T00:34:18;1;1;
54869;PMS5003;40756;-37.950;145.008;2022-09-30T00:36:50;1;1;
54869;PMS5003;40756;-37.950;145.008;2022-09-30T00:39:22;0;0;
54869;PMS5003;40756;-37.950;145.008;2022-09-30T00:41:54;1;1;
54869;PMS5003;40756;-37.950;145.008;2022-09-30T00:44:46;0;0;
54869;PMS5003;40756;-37.950;145.008;2022-09-30T00:47:24;0;0;
54869;PMS5003;40756;-37.950;145.008;2022-09-30T00:50:02;1;1;
54869;PMS5003;40756;-37.950;145.008;2022-09-30T00:52:40;1;1;
54869;PMS5003;40756;-37.950;145.008;2022-09-30T00:55:12;1;1;
54869;PMS5003;40756;-37.950;145.008;2022-09-30T00:57:53;0;0;
54869;PMS5003;40756;-37.950;145.008;2022-09-30T01:00:25;1;1;
54869;PMS5003;40756;-37.950;145.008;2022-09-30T01:02:54;1;1;
54869;PMS5003;40756;-37.950;145.008;2022-09-30T01:05:24;0;0;
54869;PMS5003;40756;-37.950;145.008;2022-09-30T01:07:55;0;0;
54869;PMS5003;40756;-37.950;145.008;2022-09-30T01:10:27;0;0;
54869;PMS5003;40756;-37.950;145.008;2022-09-30T01:12:57;0;0;
54869;PMS5003;40756;-37.950;145.008;2022-09-30T01:15:30;0;0;
54869;PMS5003;40756;-37.950;145.008;2022-09-30T01:18:09;0;0;
54869;PMS5003;40756;-37.950;145.008;2022-09-30T01:20:53;0;0;
54869;PMS5003;40756;-37.950;145.008;2022-09-30T01:24:03;0;0;
54869;PMS5003;40756;-37.950;145.008;2022-09-30T01:26:47;1;1;
54869;PMS5003;40756;-37.950;145.008;2022-09-30T01:30:38;1;1;
54869;PMS5003;40756;-37.950;145.008;2022-09-30T01:33:18;1;1;
54869;PMS5003;40756;-37.950;145.008;2022-09-30T01:36:01;1;1;
54869;PMS5003;40756;-37.950;145.008;2022-09-30T01:38:44;1;1;
54869;PMS5003;40756;-37.950;145.008;2022-09-30T01:41:24;1;0;
54869;PMS5003;40756;-37.950;145.008;2022-09-30T01:44:05;2;2;
54869;PMS5003;40756;-37.950;145.008;2022-09-30T01:46:42;0;0;
54869;PMS5003;40756;-37.950;145.008;2022-09-30T01:49:17;1;1;
54869;PMS5003;40756;-37.950;145.008;2022-09-30T01:51:55;0;0;
54869;PMS5003;40756;-37.950;145.008;2022-09-30T01:54:32;1;0;
54869;PMS5003;40756;-37.950;145.008;2022-09-30T01:57:07;0;0;
54869;PMS5003;40756;-37.950;145.008;2022-09-30T01:59:44;1;1;
54869;PMS5003;40756;-37.950;145.008;2022-09-30T02:02:18;1;1;
54869;PMS5003;40756;-37.950;145.008;2022-09-30T02:04:52;2;1;
54869;PMS5003;40756;-37.950;145.008;2022-09-30T02:07:27;0;0;
54869;PMS5003;40756;-37.950;145.008;2022-09-30T02:10:04;1;1;
54869;PMS5003;40756;-37.950;145.008;2022-09-30T02:12:40;0;0;
54869;PMS5003;40756;-37.950;145.008;2022-09-30T02:15:18;0;0;
54869;PMS5003;40756;-37.950;145.008;2022-09-30T02:17:52;1;1;
54869;PMS5003;40756;-37.950;145.008;2022-09-30T02:20:25;0;0;
54869;PMS5003;40756;-37.950;145.008;2022-09-30T02:23:02;1;1;
54869;PMS5003;40756;-37.950;145.008;2022-09-30T02:25:36;0;0;
54869;PMS5003;40756;-37.950;145.008;2022-09-30T02:28:09;0;0;
54869;PMS5003;40756;-37.950;145.008;2022-09-30T02:30:46;0;0;
54869;PMS5003;40756;-37.950;145.008;2022-09-30T02:33:18;0;0;
54869;PMS5003;40756;-37.950;145.008;2022-09-30T02:35:56;0;0;
54869;PMS5003;40756;-37.950;145.008;2022-09-30T02:38:30;0;0;
54869;PMS5003;40756;-37.950;145.008;2022-09-30T02:41:03;1;1;
54869;PMS5003;40756;-37.950;145.008;2022-09-30T02:43:39;2;2;
54869;PMS5003;40756;-37.950;145.008;2022-09-30T02:46:09;1;1;
54869;PMS5003;40756;-37.950;145.008;2022-09-30T02:48:52;0;0;
54869;PMS5003;40756;-37.950;145.008;2022-09-30T02:51:28;0;0;
54869;PMS5003;40756;-37.950;145.008;2022-09-30T02:54:06;2;1;
54869;PMS5003;40756;-37.950;145.008;2022-09-30T02:56:47;0;0;
54869;PMS5003;40756;-37.950;145.008;2022-09-30T02:59:23;0;0;
54869;PMS5003;40756;-37.950;145.008;2022-09-30T03:01:54;0;0;
54869;PMS5003;40756;-37.950;145.008;2022-09-30T03:04:25;0;0;
54869;PMS5003;40756;-37.950;145.008;2022-09-30T03:06:57;0;0;
54869;PMS5003;40756;-37.950;145.008;2022-09-30T03:09:28;1;1;
54869;PMS5003;40756;-37.950;145.008;2022-09-30T03:11:59;0;0;
54869;PMS5003;40756;-37.950;145.008;2022-09-30T03:14:43;0;0;
54869;PMS5003;40756;-37.950;145.008;2022-09-30T03:17:28;1;1;
54869;PMS5003;40756;-37.950;145.008;2022-09-30T03:20:13;0;0;
54869;PMS5003;40756;-37.950;145.008;2022-09-30T03:23:00;2;2;
54869;PMS5003;40756;-37.950;145.008;2022-09-30T03:25:44;6;5;
54869;PMS5003;40756;-37.950;145.008;2022-09-30T03:28:22;7;7;
54869;PMS5003;40756;-37.950;145.008;2022-09-30T03:31:00;22;20;
54869;PMS5003;40756;-37.950;145.008;2022-09-30T03:33:36;13;13;
54869;PMS5003;40756;-37.950;145.008;2022-09-30T03:36:17;11;11;
54869;PMS5003;40756;-37.950;145.008;2022-09-30T03:39:00;7;6;
54869;PMS5003;40756;-37.950;145.008;2022-09-30T03:41:41;7;7;
54869;PMS5003;40756;-37.950;145.008;2022-09-30T03:44:16;11;11;
54869;PMS5003;40756;-37.950;145.008;2022-09-30T03:46:50;5;5;
54869;PMS5003;40756;-37.950;145.008;2022-09-30T03:49:25;1;1;
54869;PMS5003;40756;-37.950;145.008;2022-09-30T03:51:59;0;0;
54869;PMS5003;40756;-37.950;145.008;2022-09-30T03:54:33;0;0;
54869;PMS5003;40756;-37.950;145.008;2022-09-30T03:57:12;1;1;
54869;PMS5003;40756;-37.950;145.008;2022-09-30T03:59:41;0;0;
54869;PMS5003;40756;-37.950;145.008;2022-09-30T04:02:11;1;0;
54869;PMS5003;40756;-37.950;145.008;2022-09-30T04:04:40;0;0;
54869;PMS5003;40756;-37.950;145.008;2022-09-30T04:07:10;4;3;
54869;PMS5003;40756;-37.950;145.008;2022-09-30T04:09:40;8;8;
54869;PMS5003;40756;-37.950;145.008;2022-09-30T04:12:09;4;4;
54869;PMS5003;40756;-37.950;145.008;2022-09-30T04:14:38;35;35;
54869;PMS5003;40756;-37.950;145.008;2022-09-30T04:17:08;34;34;
54869;PMS5003;40756;-37.950;145.008;2022-09-30T04:19:38;29;29;
54869;PMS5003;40756;-37.950;145.008;2022-09-30T04:22:07;25;24;
54869;PMS5003;40756;-37.950;145.008;2022-09-30T04:24:37;23;23;
54869;PMS5003;40756;-37.950;145.008;2022-09-30T04:27:06;16;16;
54869;PMS5003;40756;-37.950;145.008;2022-09-30T04:29:36;8;8;
54869;PMS5003;40756;-37.950;145.008;2022-09-30T04:32:05;12;12;
54869;PMS5003;40756;-37.950;145.008;2022-09-30T04:34:35;8;8;
54869;PMS5003;40756;-37.950;145.008;2022-09-30T04:37:04;11;10;
54869;PMS5003;40756;-37.950;145.008;2022-09-30T04:39:33;20;20;
54869;PMS5003;40756;-37.950;145.008;2022-09-30T04:42:03;10;10;
54869;PMS5003;40756;-37.950;145.008;2022-09-30T04:44:33;18;18;
54869;PMS5003;40756;-37.950;145.008;2022-09-30T04:47:03;6;6;
54869;PMS5003;40756;-37.950;145.008;2022-09-30T04:49:32;12;12;
54869;PMS5003;40756;-37.950;145.008;2022-09-30T04:52:01;3;3;
54869;PMS5003;40756;-37.950;145.008;2022-09-30T04:54:31;3;3;
54869;PMS5003;40756;-37.950;145.008;2022-09-30T04:57:00;5;5;
54869;PMS5003;40756;-37.950;145.008;2022-09-30T04:59:29;0;0;
54869;PMS5003;40756;-37.950;145.008;2022-09-30T05:01:59;1;1;
54869;PMS5003;40756;-37.950;145.008;2022-09-30T05:04:28;6;6;
54869;PMS5003;40756;-37.950;145.008;2022-09-30T05:06:57;0;0;
54869;PMS5003;40756;-37.950;145.008;2022-09-30T05:09:27;4;3;
54869;PMS5003;40756;-37.950;145.008;2022-09-30T05:11:56;1;0;
54869;PMS5003;40756;-37.950;145.008;2022-09-30T05:14:25;3;3;
54869;PMS5003;40756;-37.950;145.008;2022-09-30T05:16:55;4;4;
54869;PMS5003;40756;-37.950;145.008;2022-09-30T05:19:24;3;3;
54869;PMS5003;40756;-37.950;145.008;2022-09-30T05:21:54;7;7;
54869;PMS5003;40756;-37.950;145.008;2022-09-30T05:24:23;9;9;
54869;PMS5003;40756;-37.950;145.008;2022-09-30T05:26:53;11;11;
54869;PMS5003;40756;-37.950;145.008;2022-09-30T05:29:22;3;3;
54869;PMS5003;40756;-37.950;145.008;2022-09-30T05:31:52;4;4;
54869;PMS5003;40756;-37.950;145.008;2022-09-30T05:34:21;19;18;
54869;PMS5003;40756;-37.950;145.008;2022-09-30T05:36:50;1;1;
54869;PMS5003;40756;-37.950;145.008;2022-09-30T05:39:20;4;4;
54869;PMS5003;40756;-37.950;145.008;2022-09-30T05:41:49;5;5;
54869;PMS5003;40756;-37.950;145.008;2022-09-30T05:44:19;1;1;
54869;PMS5003;40756;-37.950;145.008;2022-09-30T05:46:49;0;0;
54869;PMS5003;40756;-37.950;145.008;2022-09-30T05:49:18;0;0;
54869;PMS5003;40756;-37.950;145.008;2022-09-30T05:51:48;2;1;
54869;PMS5003;40756;-37.950;145.008;2022-09-30T05:54:17;2;2;
54869;PMS5003;40756;-37.950;145.008;2022-09-30T05:56:47;1;1;
54869;PMS5003;40756;-37.950;145.008;2022-09-30T05:59:16;0;0;
54869;PMS5003;40756;-37.950;145.008;2022-09-30T06:01:45;0;0;
54869;PMS5003;40756;-37.950;145.008;2022-09-30T06:04:15;1;1;
54869;PMS5003;40756;-37.950;145.008;2022-09-30T06:06:44;0;0;
54869;PMS5003;40756;-37.950;145.008;2022-09-30T06:09:14;1;1;
54869;PMS5003;40756;-37.950;145.008;2022-09-30T06:11:43;1;1;
54869;PMS5003;40756;-37.950;145.008;2022-09-30T06:14:13;0;0;
54869;PMS5003;40756;-37.950;145.008;2022-09-30T06:17:10;2;2;
54869;PMS5003;40756;-37.950;145.008;2022-09-30T06:19:40;2;1;
54869;PMS5003;40756;-37.950;145.008;2022-09-30T06:22:10;1;1;
54869;PMS5003;40756;-37.950;145.008;2022-09-30T06:24:39;2;2;
54869;PMS5003;40756;-37.950;145.008;2022-09-30T06:27:09;3;2;
54869;PMS5003;40756;-37.950;145.008;2022-09-30T06:29:38;3;2;
54869;PMS5003;40756;-37.950;145.008;2022-09-30T06:32:08;2;1;
54869;PMS5003;40756;-37.950;145.008;2022-09-30T06:34:37;1;1;
54869;PMS5003;40756;-37.950;145.008;2022-09-30T06:37:07;1;1;
54869;PMS5003;40756;-37.950;145.008;2022-09-30T06:39:36;3;2;
54869;PMS5003;40756;-37.950;145.008;2022-09-30T06:42:06;0;0;
54869;PMS5003;40756;-37.950;145.008;2022-09-30T06:44:35;3;3;
54869;PMS5003;40756;-37.950;145.008;2022-09-30T06:47:05;1;1;
54869;PMS5003;40756;-37.950;145.008;2022-09-30T06:49:34;0;0;
54869;PMS5003;40756;-37.950;145.008;2022-09-30T06:52:04;1;1;
54869;PMS5003;40756;-37.950;145.008;2022-09-30T06:54:34;3;2;
54869;PMS5003;40756;-37.950;145.008;2022-09-30T06:57:04;1;1;
54869;PMS5003;40756;-37.950;145.008;2022-09-30T06:59:33;2;2;
54869;PMS5003;40756;-37.950;145.008;2022-09-30T07:02:03;1;0;
54869;PMS5003;40756;-37.950;145.008;2022-09-30T07:04:32;1;1;
54869;PMS5003;40756;-37.950;145.008;2022-09-30T07:07:02;1;1;
54869;PMS5003;40756;-37.950;145.008;2022-09-30T07:09:31;3;2;
54869;PMS5003;40756;-37.950;145.008;2022-09-30T07:12:01;4;3;
54869;PMS5003;40756;-37.950;145.008;2022-09-30T07:14:30;1;1;
54869;PMS5003;40756;-37.950;145.008;2022-09-30T07:17:00;0;0;
54869;PMS5003;40756;-37.950;145.008;2022-09-30T07:19:30;1;1;
54869;PMS5003;40756;-37.950;145.008;2022-09-30T07:22:00;2;2;
54869;PMS5003;40756;-37.950;145.008;2022-09-30T07:24:30;0;0;
54869;PMS5003;40756;-37.950;145.008;2022-09-30T07:26:59;3;2;
54869;PMS5003;40756;-37.950;145.008;2022-09-30T07:29:29;1;1;
54869;PMS5003;40756;-37.950;145.008;2022-09-30T07:31:58;3;3;
54869;PMS5003;40756;-37.950;145.008;2022-09-30T07:34:28;2;1;
54869;PMS5003;40756;-37.950;145.008;2022-09-30T07:36:59;3;2;
54869;PMS5003;40756;-37.950;145.008;2022-09-30T07:39:29;1;1;
54869;PMS5003;40756;-37.950;145.008;2022-09-30T07:41:58;2;2;
54869;PMS5003;40756;-37.950;145.008;2022-09-30T07:44:28;1;1;
54869;PMS5003;40756;-37.950;145.008;2022-09-30T07:46:59;3;2;
54869;PMS5003;40756;-37.950;145.008;2022-09-30T07:49:30;0;0;
54869;PMS5003;40756;-37.950;145.008;2022-09-30T07:51:59;1;1;
54869;PMS5003;40756;-37.950;145.008;2022-09-30T07:54:30;0;0;
54869;PMS5003;40756;-37.950;145.008;2022-09-30T07:57:01;2;2;
54869;PMS5003;40756;-37.950;145.008;2022-09-30T07:59:32;1;0;
54869;PMS5003;40756;-37.950;145.008;2022-09-30T08:02:04;2;2;
54869;PMS5003;40756;-37.950;145.008;2022-09-30T08:04:37;2;2;
54869;PMS5003;40756;-37.950;145.008;2022-09-30T08:07:07;3;2;
54869;PMS5003;40756;-37.950;145.008;2022-09-30T08:09:37;2;2;
54869;PMS5003;40756;-37.950;145.008;2022-09-30T08:12:07;2;2;
54869;PMS5003;40756;-37.950;145.008;2022-09-30T08:14:37;4;4;
54869;PMS5003;40756;-37.950;145.008;2022-09-30T08:17:06;2;2;
54869;PMS5003;40756;-37.950;145.008;2022-09-30T08:19:35;1;1;
54869;PMS5003;40756;-37.950;145.008;2022-09-30T08:22:06;6;5;
54869;PMS5003;40756;-37.950;145.008;2022-09-30T08:24:35;1;1;
54869;PMS5003;40756;-37.950;145.008;2022-09-30T08:27:05;2;2;
54869;PMS5003;40756;-37.950;145.008;2022-09-30T08:29:35;0;0;
54869;PMS5003;40756;-37.950;145.008;2022-09-30T08:32:04;3;2;
54869;PMS5003;40756;-37.950;145.008;2022-09-30T08:34:35;3;2;
54869;PMS5003;40756;-37.950;145.008;2022-09-30T08:37:04;2;2;
54869;PMS5003;40756;-37.950;145.008;2022-09-30T08:39:34;1;1;
54869;PMS5003;40756;-37.950;145.008;2022-09-30T08:42:10;5;5;
54869;PMS5003;40756;-37.950;145.008;2022-09-30T08:44:52;2;2;
54869;PMS5003;40756;-37.950;145.008;2022-09-30T08:47:36;3;2;
54869;PMS5003;40756;-37.950;145.008;2022-09-30T08:50:15;5;5;
54869;PMS5003;40756;-37.950;145.008;2022-09-30T08:52:52;5;5;
54869;PMS5003;40756;-37.950;145.008;2022-09-30T08:55:28;7;6;
54869;PMS5003;40756;-37.950;145.008;2022-09-30T08:58:03;4;3;
54869;PMS5003;40756;-37.950;145.008;2022-09-30T09:00:39;3;3;
54869;PMS5003;40756;-37.950;145.008;2022-09-30T09:03:09;2;2;
54869;PMS5003;40756;-37.950;145.008;2022-09-30T09:05:42;2;2;
54869;PMS5003;40756;-37.950;145.008;2022-09-30T09:08:23;4;3;
54869;PMS5003;40756;-37.950;145.008;2022-09-30T09:11:00;3;2;
54869;PMS5003;40756;-37.950;145.008;2022-09-30T09:13:40;2;2;
54869;PMS5003;40756;-37.950;145.008;2022-09-30T09:16:20;1;1;
54869;PMS5003;40756;-37.950;145.008;2022-09-30T09:18:58;1;1;
54869;PMS5003;40756;-37.950;145.008;2022-09-30T09:21:35;6;6;
54869;PMS5003;40756;-37.950;145.008;2022-09-30T09:24:15;3;2;
54869;PMS5003;40756;-37.950;145.008;2022-09-30T09:26:47;1;1;
54869;PMS5003;40756;-37.950;145.008;2022-09-30T09:29:21;2;1;
54869;PMS5003;40756;-37.950;145.008;2022-09-30T09:32:10;6;2;
54869;PMS5003;40756;-37.950;145.008;2022-09-30T09:34:42;3;2;
54869;PMS5003;40756;-37.950;145.008;2022-09-30T09:37:19;2;2;
54869;PMS5003;40756;-37.950;145.008;2022-09-30T09:40:01;3;3;
54869;PMS5003;40756;-37.950;145.008;2022-09-30T09:42:50;2;2;
54869;PMS5003;40756;-37.950;145.008;2022-09-30T09:45:30;2;2;
54869;PMS5003;40756;-37.950;145.008;2022-09-30T09:48:08;3;2;
54869;PMS5003;40756;-37.950;145.008;2022-09-30T09:50:41;3;2;
54869;PMS5003;40756;-37.950;145.008;2022-09-30T09:53:21;3;2;
54869;PMS5003;40756;-37.950;145.008;2022-09-30T09:56:07;4;2;
54869;PMS5003;40756;-37.950;145.008;2022-09-30T09:58:41;3;3;
54869;PMS5003;40756;-37.950;145.008;2022-09-30T10:01:33;2;2;
54869;PMS5003;40756;-37.950;145.008;2022-09-30T10:04:13;2;2;
54869;PMS5003;40756;-37.950;145.008;2022-09-30T10:06:46;4;3;
54869;PMS5003;40756;-37.950;145.008;2022-09-30T10:09:25;9;6;
54869;PMS5003;40756;-37.950;145.008;2022-09-30T10:12:29;4;3;
54869;PMS5003;40756;-37.950;145.008;2022-09-30T10:14:59;3;2;
54869;PMS5003;40756;-37.950;145.008;2022-09-30T10:17:38;3;3;
54869;PMS5003;40756;-37.950;145.008;2022-09-30T10:20:16;5;4;
54869;PMS5003;40756;-37.950;145.008;2022-09-30T10:22:51;2;2;
54869;PMS5003;40756;-37.950;145.008;2022-09-30T10:25:31;2;1;
54869;PMS5003;40756;-37.950;145.008;2022-09-30T10:28:01;4;3;
54869;PMS5003;40756;-37.950;145.008;2022-09-30T10:30:52;3;2;
54869;PMS5003;40756;-37.950;145.008;2022-09-30T10:33:26;1;1;
54869;PMS5003;40756;-37.950;145.008;2022-09-30T10:36:02;2;2;
54869;PMS5003;40756;-37.950;145.008;2022-09-30T10:38:35;4;3;
54869;PMS5003;40756;-37.950;145.008;2022-09-30T10:41:12;2;2;
54869;PMS5003;40756;-37.950;145.008;2022-09-30T10:43:48;3;2;
54869;PMS5003;40756;-37.950;145.008;2022-09-30T10:46:21;4;4;
54869;PMS5003;40756;-37.950;145.008;2022-09-30T10:48:54;2;0;
54869;PMS5003;40756;-37.950;145.008;2022-09-30T10:51:27;3;3;
54869;PMS5003;40756;-37.950;145.008;2022-09-30T10:53:59;2;2;
54869;PMS5003;40756;-37.950;145.008;2022-09-30T10:56:34;2;2;
54869;PMS5003;40756;-37.950;145.008;2022-09-30T10:59:12;2;2;
54869;PMS5003;40756;-37.950;145.008;2022-09-30T11:01:51;2;1;
54869;PMS5003;40756;-37.950;145.008;2022-09-30T11:04:29;3;3;
54869;PMS5003;40756;-37.950;145.008;2022-09-30T11:07:10;1;1;
54869;PMS5003;40756;-37.950;145.008;2022-09-30T11:09:46;2;1;
54869;PMS5003;40756;-37.950;145.008;2022-09-30T11:12:24;3;2;
54869;PMS5003;40756;-37.950;145.008;2022-09-30T11:15:07;1;1;
54869;PMS5003;40756;-37.950;145.008;2022-09-30T11:17:48;2;2;
54869;PMS5003;40756;-37.950;145.008;2022-09-30T11:20:28;4;3;
54869;PMS5003;40756;-37.950;145.008;2022-09-30T11:23:04;2;2;
54869;PMS5003;40756;-37.950;145.008;2022-09-30T11:25:44;1;1;
54869;PMS5003;40756;-37.950;145.008;2022-09-30T11:28:27;4;3;
54869;PMS5003;40756;-37.950;145.008;2022-09-30T11:31:14;4;4;
54869;PMS5003;40756;-37.950;145.008;2022-09-30T11:33:57;5;3;
54869;PMS5003;40756;-37.950;145.008;2022-09-30T11:36:42;3;2;
54869;PMS5003;40756;-37.950;145.008;2022-09-30T11:39:27;3;3;
54869;PMS5003;40756;-37.950;145.008;2022-09-30T11:42:15;3;3;
54869;PMS5003;40756;-37.950;145.008;2022-09-30T11:44:52;2;1;
54869;PMS5003;40756;-37.950;145.008;2022-09-30T11:47:35;2;2;
54869;PMS5003;40756;-37.950;145.008;2022-09-30T11:50:23;4;2;
54869;PMS5003;40756;-37.950;145.008;2022-09-30T11:53:04;4;3;
54869;PMS5003;40756;-37.950;145.008;2022-09-30T11:55:47;3;2;
54869;PMS5003;40756;-37.950;145.008;2022-09-30T11:58:30;4;4;
54869;PMS5003;40756;-37.950;145.008;2022-09-30T12:01:08;2;2;
54869;PMS5003;40756;-37.950;145.008;2022-09-30T12:03:47;3;3;
54869;PMS5003;40756;-37.950;145.008;2022-09-30T12:06:22;1;1;
54869;PMS5003;40756;-37.950;145.008;2022-09-30T12:09:00;4;3;
54869;PMS5003;40756;-37.950;145.008;2022-09-30T12:11:38;3;1;
54869;PMS5003;40756;-37.950;145.008;2022-09-30T12:14:14;4;4;
54869;PMS5003;40756;-37.950;145.008;2022-09-30T12:16:48;4;4;
54869;PMS5003;40756;-37.950;145.008;2022-09-30T12:19:19;2;2;
54869;PMS5003;40756;-37.950;145.008;2022-09-30T12:21:54;2;2;
54869;PMS5003;40756;-37.950;145.008;2022-09-30T12:24:29;5;4;
54869;PMS5003;40756;-37.950;145.008;2022-09-30T12:27:03;6;5;
54869;PMS5003;40756;-37.950;145.008;2022-09-30T12:29:41;4;4;
54869;PMS5003;40756;-37.950;145.008;2022-09-30T12:32:22;5;4;
54869;PMS5003;40756;-37.950;145.008;2022-09-30T12:33:41;5;4;
54869;PMS5003;40756;-37.950;145.008;2022-09-30T12:36:35;8;6;
54869;PMS5003;40756;-37.950;145.008;2022-09-30T12:39:31;4;3;
54869;PMS5003;40756;-37.950;145.008;2022-09-30T12:43:41;4;3;
54869;PMS5003;40756;-37.950;145.008;2022-09-30T12:46:46;5;5;
54869;PMS5003;40756;-37.950;145.008;2022-09-30T12:49:28;5;5;
54869;PMS5003;40756;-37.950;145.008;2022-09-30T12:52:02;6;6;
54869;PMS5003;40756;-37.950;145.008;2022-09-30T12:54:35;6;5;
54869;PMS5003;40756;-37.950;145.008;2022-09-30T12:57:07;6;6;
54869;PMS5003;40756;-37.950;145.008;2022-09-30T12:59:38;5;5;
54869;PMS5003;40756;-37.950;145.008;2022-09-30T13:02:26;3;3;
54869;PMS5003;40756;-37.950;145.008;2022-09-30T13:06:01;3;2;
54869;PMS5003;40756;-37.950;145.008;2022-09-30T13:08:40;3;2;
54869;PMS5003;40756;-37.950;145.008;2022-09-30T13:11:44;3;3;
54869;PMS5003;40756;-37.950;145.008;2022-09-30T13:14:17;3;3;
54869;PMS5003;40756;-37.950;145.008;2022-09-30T13:16:58;4;2;
54869;PMS5003;40756;-37.950;145.008;2022-09-30T13:19:31;4;3;
54869;PMS5003;40756;-37.950;145.008;2022-09-30T13:23:10;4;3;
54869;PMS5003;40756;-37.950;145.008;2022-09-30T13:26:03;3;3;
54869;PMS5003;40756;-37.950;145.008;2022-09-30T13:29:26;4;3;
54869;PMS5003;40756;-37.950;145.008;2022-09-30T13:32:03;2;2;
54869;PMS5003;40756;-37.950;145.008;2022-09-30T13:34:47;4;3;
54869;PMS5003;40756;-37.950;145.008;2022-09-30T13:37:31;4;4;
54869;PMS5003;40756;-37.950;145.008;2022-09-30T13:40:03;2;2;
54869;PMS5003;40756;-37.950;145.008;2022-09-30T13:42:47;3;2;
54869;PMS5003;40756;-37.950;145.008;2022-09-30T13:45:27;6;4;
54869;PMS5003;40756;-37.950;145.008;2022-09-30T13:48:05;5;5;
54869;PMS5003;40756;-37.950;145.008;2022-09-30T13:50:41;4;1;
54869;PMS5003;40756;-37.950;145.008;2022-09-30T13:53:18;3;3;
54869;PMS5003;40756;-37.950;145.008;2022-09-30T13:55:54;2;2;
54869;PMS5003;40756;-37.950;145.008;2022-09-30T13:58:34;2;2;
54869;PMS5003;40756;-37.950;145.008;2022-09-30T14:01:22;3;3;
54869;PMS5003;40756;-37.950;145.008;2022-09-30T14:06:01;2;2;
54869;PMS5003;40756;-37.950;145.008;2022-09-30T14:08:45;4;4;
54869;PMS5003;40756;-37.950;145.008;2022-09-30T14:11:41;4;3;
54869;PMS5003;40756;-37.950;145.008;2022-09-30T14:14:36;4;2;
54869;PMS5003;40756;-37.950;145.008;2022-09-30T14:18:41;1;1;
54869;PMS5003;40756;-37.950;145.008;2022-09-30T14:21:32;3;2;
54869;PMS5003;40756;-37.950;145.008;2022-09-30T14:24:09;6;4;
54869;PMS5003;40756;-37.950;145.008;2022-09-30T14:26:45;4;3;
54869;PMS5003;40756;-37.950;145.008;2022-09-30T14:29:28;5;5;
54869;PMS5003;40756;-37.950;145.008;2022-09-30T14:32:11;5;5;
54869;PMS5003;40756;-37.950;145.008;2022-09-30T14:34:43;5;4;
54869;PMS5003;40756;-37.950;145.008;2022-09-30T14:37:14;3;3;
54869;PMS5003;40756;-37.950;145.008;2022-09-30T14:39:51;6;6;
54869;PMS5003;40756;-37.950;145.008;2022-09-30T14:42:23;3;3;
54869;PMS5003;40756;-37.950;145.008;2022-09-30T14:44:59;4;2;
54869;PMS5003;40756;-37.950;145.008;2022-09-30T14:47:32;5;4;
54869;PMS5003;40756;-37.950;145.008;2022-09-30T14:50:09;3;3;
54869;PMS5003;40756;-37.950;145.008;2022-09-30T14:52:44;4;4;
54869;PMS5003;40756;-37.950;145.008;2022-09-30T14:55:18;6;6;
54869;PMS5003;40756;-37.950;145.008;2022-09-30T14:57:50;7;5;
54869;PMS5003;40756;-37.950;145.008;2022-09-30T15:00:25;5;4;
54869;PMS5003;40756;-37.950;145.008;2022-09-30T15:02:57;4;4;
54869;PMS5003;40756;-37.950;145.008;2022-09-30T15:05:27;5;5;
54869;PMS5003;40756;-37.950;145.008;2022-09-30T15:07:57;3;2;
54869;PMS5003;40756;-37.950;145.008;2022-09-30T15:10:27;3;3;
54869;PMS5003;40756;-37.950;145.008;2022-09-30T15:12:57;4;2;
54869;PMS5003;40756;-37.950;145.008;2022-09-30T15:15:32;4;3;
54869;PMS5003;40756;-37.950;145.008;2022-09-30T15:18:42;1;1;
54869;PMS5003;40756;-37.950;145.008;2022-09-30T15:21:14;2;2;
54869;PMS5003;40756;-37.950;145.008;2022-09-30T15:23:45;1;1;
54869;PMS5003;40756;-37.950;145.008;2022-09-30T15:26:18;4;4;
54869;PMS5003;40756;-37.950;145.008;2022-09-30T15:28:50;2;2;
54869;PMS5003;40756;-37.950;145.008;2022-09-30T15:31:21;2;2;
54869;PMS5003;40756;-37.950;145.008;2022-09-30T15:34:02;1;1;
54869;PMS5003;40756;-37.950;145.008;2022-09-30T15:36:35;2;1;
54869;PMS5003;40756;-37.950;145.008;2022-09-30T15:39:06;2;2;
54869;PMS5003;40756;-37.950;145.008;2022-09-30T15:41:48;4;3;
54869;PMS5003;40756;-37.950;145.008;2022-09-30T15:44:19;5;5;
54869;PMS5003;40756;-37.950;145.008;2022-09-30T15:47:05;2;1;
54869;PMS5003;40756;-37.950;145.008;2022-09-30T15:49:45;2;2;
54869;PMS5003;40756;-37.950;145.008;2022-09-30T15:52:19;4;3;
54869;PMS5003;40756;-37.950;145.008;2022-09-30T15:54:55;6;5;
54869;PMS5003;40756;-37.950;145.008;2022-09-30T15:57:44;2;2;
54869;PMS5003;40756;-37.950;145.008;2022-09-30T16:00:48;2;2;
54869;PMS5003;40756;-37.950;145.008;2022-09-30T16:03:23;5;5;
54869;PMS5003;40756;-37.950;145.008;2022-09-30T16:06:04;5;3;
54869;PMS5003;40756;-37.950;145.008;2022-09-30T16:08:40;5;4;
54869;PMS5003;40756;-37.950;145.008;2022-09-30T16:11:16;5;3;
54869;PMS5003;40756;-37.950;145.008;2022-09-30T16:13:48;2;2;
54869;PMS5003;40756;-37.950;145.008;2022-09-30T16:16:19;4;4;
54869;PMS5003;40756;-37.950;145.008;2022-09-30T16:18:51;7;6;
54869;PMS5003;40756;-37.950;145.008;2022-09-30T16:21:29;5;5;
54869;PMS5003;40756;-37.950;145.008;2022-09-30T16:24:17;4;4;
54869;PMS5003;40756;-37.950;145.008;2022-09-30T16:27:27;5;4;
54869;PMS5003;40756;-37.950;145.008;2022-09-30T16:29:58;5;5;
54869;PMS5003;40756;-37.950;145.008;2022-09-30T16:32:30;5;4;
54869;PMS5003;40756;-37.950;145.008;2022-09-30T16:35:03;6;5;
54869;PMS5003;40756;-37.950;145.008;2022-09-30T16:37:33;6;6;
54869;PMS5003;40756;-37.950;145.008;2022-09-30T16:40:08;5;4;
54869;PMS5003;40756;-37.950;145.008;2022-09-30T16:42:44;6;5;
54869;PMS5003;40756;-37.950;145.008;2022-09-30T16:45:13;7;6;
54869;PMS5003;40756;-37.950;145.008;2022-09-30T16:47:43;5;5;
54869;PMS5003;40756;-37.950;145.008;2022-09-30T16:50:24;6;6;
54869;PMS5003;40756;-37.950;145.008;2022-09-30T16:52:59;8;7;
54869;PMS5003;40756;-37.950;145.008;2022-09-30T16:55:29;5;5;
54869;PMS5003;40756;-37.950;145.008;2022-09-30T16:57:59;7;6;
54869;PMS5003;40756;-37.950;145.008;2022-09-30T17:03:09;7;7;